sensor_id;sensor_type;location;lat;lon;timestamp;pressure;altitude;pressure_sealevel;temperature;humidity
67840;BME280;54636;51.684;5.142;2024-02-23T00:00:48;98821.47;;;4.32;100.00
67840;BME280;54636;51.684;5.142;2024-02-23T00:03:14;98826.84;;;4.32;100.00
67840;BME280;54636;51.684;5.142;2024-02-23T00:05:39;98826.38;;;4.39;100.00
67840;BME280;54636;51.684;5.142;2024-02-23T00:08:06;98829.06;;;4.33;100.00
67840;BME280;54636;51.684;5.142;2024-02-23T00:10:32;98831.25;;;4.29;100.00
67840;BME280;54636;51.684;5.142;2024-02-23T00:12:57;98831.00;;;4.27;100.00
67840;BME280;54636;51.684;5.142;2024-02-23T00:15:22;98842.00;;;4.35;100.00
67840;BME280;54636;51.684;5.142;2024-02-23T00:17:49;98840.28;;;4.32;100.00
67840;BME280;54636;51.684;5.142;2024-02-23T00:20:15;98849.81;;;4.33;100.00
67840;BME280;54636;51.684;5.142;2024-02-23T00:22:40;98851.09;;;4.54;100.00
67840;BME280;54636;51.684;5.142;2024-02-23T00:25:06;98849.13;;;4.60;100.00
67840;BME280;54636;51.684;5.142;2024-02-23T00:27:31;98856.72;;;4.61;100.00
67840;BME280;54636;51.684;5.142;2024-02-23T00:29:56;98868.94;;;4.62;100.00
67840;BME280;54636;51.684;5.142;2024-02-23T00:32:22;98875.53;;;4.67;100.00
67840;BME280;54636;51.684;5.142;2024-02-23T00:34:47;98875.53;;;4.61;100.00
67840;BME280;54636;51.684;5.142;2024-02-23T00:37:12;98876.25;;;4.62;100.00
67840;BME280;54636;51.684;5.142;2024-02-23T00:39:38;98873.09;;;4.52;100.00
67840;BME280;54636;51.684;5.142;2024-02-23T00:42:03;98890.44;;;4.51;100.00
67840;BME280;54636;51.684;5.142;2024-02-23T00:44:29;98886.28;;;4.61;100.00
67840;BME280;54636;51.684;5.142;2024-02-23T00:46:54;98881.13;;;4.58;100.00
67840;BME280;54636;51.684;5.142;2024-02-23T00:49:20;98881.88;;;4.47;100.00
67840;BME280;54636;51.684;5.142;2024-02-23T00:51:45;98889.41;;;4.38;100.00
67840;BME280;54636;51.684;5.142;2024-02-23T00:54:11;98882.59;;;4.42;100.00
67840;BME280;54636;51.684;5.142;2024-02-23T00:56:36;98894.56;;;4.41;100.00
67840;BME280;54636;51.684;5.142;2024-02-23T00:59:01;98897.25;;;4.41;100.00
67840;BME280;54636;51.684;5.142;2024-02-23T01:01:27;98892.59;;;4.36;100.00
67840;BME280;54636;51.684;5.142;2024-02-23T01:03:53;98910.19;;;4.37;100.00
67840;BME280;54636;51.684;5.142;2024-02-23T01:06:19;98901.13;;;4.35;100.00
67840;BME280;54636;51.684;5.142;2024-02-23T01:08:45;98913.34;;;4.30;100.00
67840;BME280;54636;51.684;5.142;2024-02-23T01:11:10;98907.44;;;4.20;100.00
67840;BME280;54636;51.684;5.142;2024-02-23T01:13:35;98916.47;;;4.23;100.00
67840;BME280;54636;51.684;5.142;2024-02-23T01:16:01;98909.13;;;4.18;100.00
67840;BME280;54636;51.684;5.142;2024-02-23T01:18:26;98911.34;;;4.19;100.00
67840;BME280;54636;51.684;5.142;2024-02-23T01:20:51;98908.91;;;4.21;100.00
67840;BME280;54636;51.684;5.142;2024-02-23T01:23:17;98911.81;;;4.18;100.00
67840;BME280;54636;51.684;5.142;2024-02-23T01:25:42;98905.44;;;4.10;100.00
67840;BME280;54636;51.684;5.142;2024-02-23T01:28:07;98920.59;;;4.18;100.00
67840;BME280;54636;51.684;5.142;2024-02-23T01:30:33;98904.94;;;4.11;100.00
67840;BME280;54636;51.684;5.142;2024-02-23T01:32:58;98920.59;;;4.18;100.00
67840;BME280;54636;51.684;5.142;2024-02-23T01:35:23;98912.81;;;4.26;100.00
67840;BME280;54636;51.684;5.142;2024-02-23T01:37:49;98915.75;;;4.22;100.00
67840;BME280;54636;51.684;5.142;2024-02-23T01:40:14;98921.34;;;4.19;100.00
67840;BME280;54636;51.684;5.142;2024-02-23T01:42:40;98923.75;;;4.11;100.00
67840;BME280;54636;51.684;5.142;2024-02-23T01:45:05;98927.94;;;4.18;100.00
67840;BME280;54636;51.684;5.142;2024-02-23T01:47:32;98930.81;;;4.09;100.00
67840;BME280;54636;51.684;5.142;2024-02-23T01:49:58;98944.97;;;4.04;100.00
67840;BME280;54636;51.684;5.142;2024-02-23T01:52:24;98945.72;;;4.10;100.00
67840;BME280;54636;51.684;5.142;2024-02-23T01:54:51;98942.84;;;4.19;100.00
67840;BME280;54636;51.684;5.142;2024-02-23T01:57:17;98942.53;;;4.06;100.00
67840;BME280;54636;51.684;5.142;2024-02-23T01:59:42;98932.22;;;3.98;100.00
67840;BME280;54636;51.684;5.142;2024-02-23T02:02:08;98936.72;;;4.13;100.00
67840;BME280;54636;51.684;5.142;2024-02-23T02:04:34;98933.94;;;3.96;100.00
67840;BME280;54636;51.684;5.142;2024-02-23T02:07:00;98934.66;;;3.96;100.00
67840;BME280;54636;51.684;5.142;2024-02-23T02:09:26;98926.41;;;4.06;100.00
67840;BME280;54636;51.684;5.142;2024-02-23T02:11:51;98937.66;;;4.10;100.00
67840;BME280;54636;51.684;5.142;2024-02-23T02:14:17;98944.72;;;4.07;100.00
67840;BME280;54636;51.684;5.142;2024-02-23T02:16:43;98939.38;;;4.07;100.00
67840;BME280;54636;51.684;5.142;2024-02-23T02:19:09;98934.97;;;4.10;100.00
67840;BME280;54636;51.684;5.142;2024-02-23T02:21:36;98945.25;;;4.11;100.00
67840;BME280;54636;51.684;5.142;2024-02-23T02:24:02;98952.06;;;4.07;100.00
67840;BME280;54636;51.684;5.142;2024-02-23T02:26:28;98953.56;;;4.13;100.00
67840;BME280;54636;51.684;5.142;2024-02-23T02:28:53;98946.50;;;4.16;100.00
67840;BME280;54636;51.684;5.142;2024-02-23T02:31:19;98949.84;;;4.05;100.00
67840;BME280;54636;51.684;5.142;2024-02-23T02:33:44;98949.78;;;3.94;100.00
67840;BME280;54636;51.684;5.142;2024-02-23T02:36:09;98945.16;;;3.94;100.00
67840;BME280;54636;51.684;5.142;2024-02-23T02:38:36;98954.53;;;4.10;100.00
67840;BME280;54636;51.684;5.142;2024-02-23T02:41:02;98952.53;;;4.05;100.00
67840;BME280;54636;51.684;5.142;2024-02-23T02:43:27;98955.22;;;4.05;100.00
67840;BME280;54636;51.684;5.142;2024-02-23T02:45:53;98958.56;;;3.94;100.00
67840;BME280;54636;51.684;5.142;2024-02-23T02:48:18;98956.63;;;3.89;100.00
67840;BME280;54636;51.684;5.142;2024-02-23T02:50:44;98942.22;;;3.92;100.00
67840;BME280;54636;51.684;5.142;2024-02-23T02:53:10;98964.44;;;3.93;100.00
67840;BME280;54636;51.684;5.142;2024-02-23T02:55:36;98961.03;;;3.98;100.00
67840;BME280;54636;51.684;5.142;2024-02-23T02:58:02;98962.22;;;3.91;100.00
67840;BME280;54636;51.684;5.142;2024-02-23T03:00:27;98958.13;;;4.02;100.00
67840;BME280;54636;51.684;5.142;2024-02-23T03:02:53;98964.09;;;4.17;100.00
67840;BME280;54636;51.684;5.142;2024-02-23T03:05:18;98963.78;;;4.09;100.00
67840;BME280;54636;51.684;5.142;2024-02-23T03:07:44;98970.44;;;4.19;100.00
67840;BME280;54636;51.684;5.142;2024-02-23T03:10:09;98969.94;;;4.15;100.00
67840;BME280;54636;51.684;5.142;2024-02-23T03:12:35;98976.97;;;4.07;100.00
67840;BME280;54636;51.684;5.142;2024-02-23T03:15:00;98971.34;;;4.05;100.00
67840;BME280;54636;51.684;5.142;2024-02-23T03:17:27;98977.84;;;3.93;100.00
67840;BME280;54636;51.684;5.142;2024-02-23T03:19:53;98966.44;;;4.04;100.00
67840;BME280;54636;51.684;5.142;2024-02-23T03:22:18;98986.19;;;3.95;100.00
67840;BME280;54636;51.684;5.142;2024-02-23T03:24:43;98976.44;;;3.97;100.00
67840;BME280;54636;51.684;5.142;2024-02-23T03:27:09;98975.69;;;3.97;100.00
67840;BME280;54636;51.684;5.142;2024-02-23T03:29:34;98980.53;;;3.93;100.00
67840;BME280;54636;51.684;5.142;2024-02-23T03:32:00;98970.81;;;4.01;100.00
67840;BME280;54636;51.684;5.142;2024-02-23T03:34:26;98966.19;;;4.02;100.00
67840;BME280;54636;51.684;5.142;2024-02-23T03:36:52;98974.47;;;3.98;100.00
67840;BME280;54636;51.684;5.142;2024-02-23T03:39:17;98965.00;;;4.08;100.00
67840;BME280;54636;51.684;5.142;2024-02-23T03:41:43;98972.03;;;4.00;100.00
67840;BME280;54636;51.684;5.142;2024-02-23T03:44:08;98972.34;;;4.08;100.00
67840;BME280;54636;51.684;5.142;2024-02-23T03:46:34;98974.72;;;4.00;100.00
67840;BME280;54636;51.684;5.142;2024-02-23T03:49:00;98967.59;;;3.86;100.00
67840;BME280;54636;51.684;5.142;2024-02-23T03:51:25;98973.47;;;3.90;100.00
67840;BME280;54636;51.684;5.142;2024-02-23T03:53:50;98959.78;;;3.93;100.00
67840;BME280;54636;51.684;5.142;2024-02-23T03:56:16;98977.94;;;4.04;100.00
67840;BME280;54636;51.684;5.142;2024-02-23T03:58:41;98966.44;;;4.04;100.00
67840;BME280;54636;51.684;5.142;2024-02-23T04:01:07;98973.59;;;4.12;100.00
67840;BME280;54636;51.684;5.142;2024-02-23T04:03:32;98961.78;;;3.98;100.00
67840;BME280;54636;51.684;5.142;2024-02-23T04:05:58;98984.06;;;4.10;100.00
67840;BME280;54636;51.684;5.142;2024-02-23T04:08:23;98974.84;;;4.17;100.00
67840;BME280;54636;51.684;5.142;2024-02-23T04:10:49;98985.91;;;4.30;100.00
67840;BME280;54636;51.684;5.142;2024-02-23T04:13:14;98992.50;;;4.29;100.00
67840;BME280;54636;51.684;5.142;2024-02-23T04:15:40;98981.22;;;4.25;100.00
67840;BME280;54636;51.684;5.142;2024-02-23T04:18:06;98995.38;;;4.20;100.00
67840;BME280;54636;51.684;5.142;2024-02-23T04:20:31;98987.06;;;4.18;100.00
67840;BME280;54636;51.684;5.142;2024-02-23T04:22:58;98983.38;;;4.15;100.00
67840;BME280;54636;51.684;5.142;2024-02-23T04:25:23;98981.91;;;4.14;100.00
67840;BME280;54636;51.684;5.142;2024-02-23T04:27:48;98983.81;;;4.08;100.00
67840;BME280;54636;51.684;5.142;2024-02-23T04:30:14;98952.38;;;3.77;100.00
67840;BME280;54636;51.684;5.142;2024-02-23T04:32:39;98988.91;;;4.01;100.00
67840;BME280;54636;51.684;5.142;2024-02-23T04:35:05;98989.59;;;3.95;100.00
67840;BME280;54636;51.684;5.142;2024-02-23T04:37:31;98987.88;;;3.92;100.00
67840;BME280;54636;51.684;5.142;2024-02-23T04:39:56;98979.41;;;4.05;100.00
67840;BME280;54636;51.684;5.142;2024-02-23T04:42:21;98986.28;;;4.12;100.00
67840;BME280;54636;51.684;5.142;2024-02-23T04:44:47;98981.38;;;4.10;100.00
67840;BME280;54636;51.684;5.142;2024-02-23T04:47:14;98988.75;;;4.15;100.00
67840;BME280;54636;51.684;5.142;2024-02-23T04:49:39;98972.13;;;4.11;100.00
67840;BME280;54636;51.684;5.142;2024-02-23T04:52:05;98983.13;;;4.13;100.00
67840;BME280;54636;51.684;5.142;2024-02-23T04:54:30;98979.94;;;4.15;100.00
67840;BME280;54636;51.684;5.142;2024-02-23T04:56:56;98994.66;;;4.25;100.00
67840;BME280;54636;51.684;5.142;2024-02-23T04:59:21;98997.59;;;4.27;100.00
67840;BME280;54636;51.684;5.142;2024-02-23T05:01:46;99000.34;;;4.38;100.00
67840;BME280;54636;51.684;5.142;2024-02-23T05:04:12;99006.53;;;4.55;100.00
67840;BME280;54636;51.684;5.142;2024-02-23T05:06:37;99014.84;;;4.52;100.00
67840;BME280;54636;51.684;5.142;2024-02-23T05:09:03;99006.81;;;4.69;100.00
67840;BME280;54636;51.684;5.142;2024-02-23T05:11:28;99008.03;;;4.68;100.00
67840;BME280;54636;51.684;5.142;2024-02-23T05:13:54;99015.16;;;4.71;100.00
67840;BME280;54636;51.684;5.142;2024-02-23T05:16:19;99014.19;;;4.74;100.00
67840;BME280;54636;51.684;5.142;2024-02-23T05:18:45;99016.16;;;4.79;100.00
67840;BME280;54636;51.684;5.142;2024-02-23T05:21:12;99007.59;;;4.80;100.00
67840;BME280;54636;51.684;5.142;2024-02-23T05:23:37;99005.66;;;4.81;100.00
67840;BME280;54636;51.684;5.142;2024-02-23T05:26:03;99010.06;;;4.84;100.00
67840;BME280;54636;51.684;5.142;2024-02-23T05:28:28;99008.88;;;4.90;100.00
67840;BME280;54636;51.684;5.142;2024-02-23T05:30:54;99011.81;;;4.92;100.00
67840;BME280;54636;51.684;5.142;2024-02-23T05:33:21;99006.19;;;4.96;100.00
67840;BME280;54636;51.684;5.142;2024-02-23T05:35:47;99010.34;;;4.97;100.00
67840;BME280;54636;51.684;5.142;2024-02-23T05:38:15;99009.63;;;4.96;100.00
67840;BME280;54636;51.684;5.142;2024-02-23T05:40:41;99006.22;;;5.02;100.00
67840;BME280;54636;51.684;5.142;2024-02-23T05:43:06;98991.03;;;4.99;100.00
67840;BME280;54636;51.684;5.142;2024-02-23T05:45:32;98990.06;;;5.02;100.00
67840;BME280;54636;51.684;5.142;2024-02-23T05:47:57;98997.66;;;5.09;100.00
67840;BME280;54636;51.684;5.142;2024-02-23T05:50:23;99001.06;;;4.98;100.00
67840;BME280;54636;51.684;5.142;2024-02-23T05:52:48;99005.72;;;4.97;100.00
67840;BME280;54636;51.684;5.142;2024-02-23T05:55:14;98994.50;;;5.10;100.00
67840;BME280;54636;51.684;5.142;2024-02-23T05:57:40;99005.25;;;5.10;100.00
67840;BME280;54636;51.684;5.142;2024-02-23T06:00:05;99004.03;;;5.11;100.00
67840;BME280;54636;51.684;5.142;2024-02-23T06:02:32;99006.72;;;5.06;100.00
67840;BME280;54636;51.684;5.142;2024-02-23T06:04:58;99002.06;;;5.12;100.00
67840;BME280;54636;51.684;5.142;2024-02-23T06:07:23;99001.56;;;5.08;100.00
67840;BME280;54636;51.684;5.142;2024-02-23T06:09:55;99006.72;;;5.06;100.00
67840;BME280;54636;51.684;5.142;2024-02-23T06:12:20;99008.91;;;5.07;100.00
67840;BME280;54636;51.684;5.142;2024-02-23T06:14:46;99019.94;;;5.09;100.00
67840;BME280;54636;51.684;5.142;2024-02-23T06:17:11;99016.78;;;5.16;100.00
67840;BME280;54636;51.684;5.142;2024-02-23T06:19:36;99013.56;;;5.12;100.00
67840;BME280;54636;51.684;5.142;2024-02-23T06:22:02;99016.50;;;5.25;100.00
67840;BME280;54636;51.684;5.142;2024-02-23T06:24:27;99015.06;;;5.19;100.00
67840;BME280;54636;51.684;5.142;2024-02-23T06:26:52;99007.94;;;5.21;100.00
67840;BME280;54636;51.684;5.142;2024-02-23T06:29:18;99009.69;;;5.19;100.00
67840;BME280;54636;51.684;5.142;2024-02-23T06:31:43;99003.56;;;5.18;100.00
67840;BME280;54636;51.684;5.142;2024-02-23T06:34:14;99005.25;;;5.21;100.00
67840;BME280;54636;51.684;5.142;2024-02-23T06:36:39;99001.81;;;5.21;100.00
67840;BME280;54636;51.684;5.142;2024-02-23T06:39:05;99002.34;;;5.36;100.00
67840;BME280;54636;51.684;5.142;2024-02-23T06:41:30;99007.72;;;5.36;100.00
67840;BME280;54636;51.684;5.142;2024-02-23T06:43:56;99007.72;;;5.30;100.00
67840;BME280;54636;51.684;5.142;2024-02-23T06:46:21;98995.00;;;5.37;100.00
67840;BME280;54636;51.684;5.142;2024-02-23T06:48:47;99001.59;;;5.36;100.00
67840;BME280;54636;51.684;5.142;2024-02-23T06:51:13;98984.47;;;5.39;100.00
67840;BME280;54636;51.684;5.142;2024-02-23T06:53:39;98993.28;;;5.39;100.00
67840;BME280;54636;51.684;5.142;2024-02-23T06:56:05;98987.41;;;5.41;100.00
67840;BME280;54636;51.684;5.142;2024-02-23T06:58:30;99007.50;;;5.51;100.00
67840;BME280;54636;51.684;5.142;2024-02-23T07:00:56;98997.94;;;5.44;100.00
67840;BME280;54636;51.684;5.142;2024-02-23T07:03:21;99008.22;;;5.40;100.00
67840;BME280;54636;51.684;5.142;2024-02-23T07:05:47;99010.91;;;5.51;100.00
67840;BME280;54636;51.684;5.142;2024-02-23T07:08:13;99006.50;;;5.43;100.00
67840;BME280;54636;51.684;5.142;2024-02-23T07:10:38;99007.00;;;5.41;100.00
67840;BME280;54636;51.684;5.142;2024-02-23T07:13:05;99005.03;;;5.47;100.00
67840;BME280;54636;51.684;5.142;2024-02-23T07:15:32;99007.25;;;5.54;100.00
67840;BME280;54636;51.684;5.142;2024-02-23T07:17:58;99010.91;;;5.51;100.00
67840;BME280;54636;51.684;5.142;2024-02-23T07:20:23;99011.66;;;5.52;100.00
67840;BME280;54636;51.684;5.142;2024-02-23T07:22:48;99021.22;;;5.58;100.00
67840;BME280;54636;51.684;5.142;2024-02-23T07:25:17;99018.03;;;5.71;100.00
67840;BME280;54636;51.684;5.142;2024-02-23T07:27:45;99021.72;;;5.79;100.00
67840;BME280;54636;51.684;5.142;2024-02-23T07:30:11;99018.78;;;5.83;100.00
67840;BME280;54636;51.684;5.142;2024-02-23T07:32:36;99018.78;;;5.83;100.00
67840;BME280;54636;51.684;5.142;2024-02-23T07:35:02;99018.03;;;5.93;100.00
67840;BME280;54636;51.684;5.142;2024-02-23T07:37:29;99013.84;;;6.04;100.00
67840;BME280;54636;51.684;5.142;2024-02-23T07:39:54;99005.03;;;6.14;100.00
67840;BME280;54636;51.684;5.142;2024-02-23T07:42:20;99005.75;;;6.26;100.00
67840;BME280;54636;51.684;5.142;2024-02-23T07:44:45;99004.50;;;6.27;100.00
67840;BME280;54636;51.684;5.142;2024-02-23T07:47:13;98983.66;;;6.33;100.00
67840;BME280;54636;51.684;5.142;2024-02-23T07:49:39;98983.94;;;6.18;100.00
67840;BME280;54636;51.684;5.142;2024-02-23T07:52:06;98979.53;;;6.21;100.00
67840;BME280;54636;51.684;5.142;2024-02-23T07:54:32;98973.84;;;6.36;100.00
67840;BME280;54636;51.684;5.142;2024-02-23T07:56:57;98968.69;;;6.38;100.00
67840;BME280;54636;51.684;5.142;2024-02-23T07:59:23;98973.56;;;6.45;100.00
67840;BME280;54636;51.684;5.142;2024-02-23T08:01:48;98973.06;;;6.46;100.00
67840;BME280;54636;51.684;5.142;2024-02-23T08:04:14;98972.59;;;6.42;100.00
67840;BME280;54636;51.684;5.142;2024-02-23T08:06:39;98980.91;;;6.50;100.00
67840;BME280;54636;51.684;5.142;2024-02-23T08:09:05;98959.53;;;6.52;100.00
67840;BME280;54636;51.684;5.142;2024-02-23T08:11:30;98964.44;;;6.53;100.00
67840;BME280;54636;51.684;5.142;2024-02-23T08:13:55;98964.69;;;6.55;100.00
67840;BME280;54636;51.684;5.142;2024-02-23T08:16:21;98963.22;;;6.54;100.00
67840;BME280;54636;51.684;5.142;2024-02-23T08:18:46;98959.34;;;6.50;100.00
67840;BME280;54636;51.684;5.142;2024-02-23T08:21:12;98957.53;;;6.64;100.00
67840;BME280;54636;51.684;5.142;2024-02-23T08:23:37;98955.00;;;6.82;100.00
67840;BME280;54636;51.684;5.142;2024-02-23T08:26:03;98947.34;;;6.92;100.00
67840;BME280;54636;51.684;5.142;2024-02-23T08:28:28;98964.59;;;6.78;100.00
67840;BME280;54636;51.684;5.142;2024-02-23T08:30:54;98949.81;;;6.84;100.00
67840;BME280;54636;51.684;5.142;2024-02-23T08:33:19;98951.34;;;6.74;100.00
67840;BME280;54636;51.684;5.142;2024-02-23T08:35:45;98950.38;;;6.72;100.00
67840;BME280;54636;51.684;5.142;2024-02-23T08:38:10;98942.00;;;6.81;100.00
67840;BME280;54636;51.684;5.142;2024-02-23T08:40:36;98949.81;;;6.84;100.00
67840;BME280;54636;51.684;5.142;2024-02-23T08:43:01;98948.88;;;6.76;100.00
67840;BME280;54636;51.684;5.142;2024-02-23T08:45:27;98946.47;;;6.67;100.00
67840;BME280;54636;51.684;5.142;2024-02-23T08:47:52;98950.16;;;6.70;100.00
67840;BME280;54636;51.684;5.142;2024-02-23T08:50:18;98951.38;;;6.69;100.00
67840;BME280;54636;51.684;5.142;2024-02-23T08:52:43;98951.84;;;6.73;100.00
67840;BME280;54636;51.684;5.142;2024-02-23T08:55:09;98953.25;;;6.85;100.00
67840;BME280;54636;51.684;5.142;2024-02-23T08:57:34;98953.94;;;6.97;100.00
67840;BME280;54636;51.684;5.142;2024-02-23T09:00:00;98958.72;;;7.15;100.00
67840;BME280;54636;51.684;5.142;2024-02-23T09:02:25;98957.16;;;7.25;100.00
67840;BME280;54636;51.684;5.142;2024-02-23T09:04:51;98954.69;;;7.27;100.00
67840;BME280;54636;51.684;5.142;2024-02-23T09:07:16;98959.00;;;7.41;100.00
67840;BME280;54636;51.684;5.142;2024-02-23T09:09:45;98964.66;;;7.43;100.00
67840;BME280;54636;51.684;5.142;2024-02-23T09:12:10;98983.09;;;7.39;100.00
67840;BME280;54636;51.684;5.142;2024-02-23T09:14:36;98987.31;;;7.29;100.00
67840;BME280;54636;51.684;5.142;2024-02-23T09:17:04;98988.63;;;7.17;100.00
67840;BME280;54636;51.684;5.142;2024-02-23T09:19:29;98984.06;;;7.06;100.00
67840;BME280;54636;51.684;5.142;2024-02-23T09:21:55;98987.03;;;7.03;100.00
67840;BME280;54636;51.684;5.142;2024-02-23T09:24:21;98991.50;;;6.89;100.00
67840;BME280;54636;51.684;5.142;2024-02-23T09:26:47;98985.16;;;6.86;100.00
67840;BME280;54636;51.684;5.142;2024-02-23T09:29:12;98980.78;;;6.72;100.00
67840;BME280;54636;51.684;5.142;2024-02-23T09:31:38;98984.19;;;6.84;100.00
67840;BME280;54636;51.684;5.142;2024-02-23T09:34:03;98998.03;;;6.58;100.00
67840;BME280;54636;51.684;5.142;2024-02-23T09:36:29;98997.53;;;6.54;100.00
67840;BME280;54636;51.684;5.142;2024-02-23T09:38:55;99004.16;;;6.58;100.00
67840;BME280;54636;51.684;5.142;2024-02-23T09:41:22;99007.59;;;6.53;100.00
67840;BME280;54636;51.684;5.142;2024-02-23T09:43:48;99009.28;;;6.62;100.00
67840;BME280;54636;51.684;5.142;2024-02-23T09:46:18;99002.44;;;6.61;100.00
67840;BME280;54636;51.684;5.142;2024-02-23T09:48:44;99009.47;;;6.75;100.00
67840;BME280;54636;51.684;5.142;2024-02-23T09:51:10;98996.84;;;7.00;100.00
67840;BME280;54636;51.684;5.142;2024-02-23T09:53:38;99008.50;;;7.19;100.00
67840;BME280;54636;51.684;5.142;2024-02-23T09:56:04;98991.97;;;7.34;100.00
67840;BME280;54636;51.684;5.142;2024-02-23T09:58:31;99006.13;;;7.46;100.00
67840;BME280;54636;51.684;5.142;2024-02-23T10:00:58;98993.72;;;7.62;100.00
67840;BME280;54636;51.684;5.142;2024-02-23T10:03:25;99008.97;;;7.59;100.00
67840;BME280;54636;51.684;5.142;2024-02-23T10:05:54;99017.53;;;7.63;100.00
67840;BME280;54636;51.684;5.142;2024-02-23T10:08:19;99010.69;;;7.62;100.00
67840;BME280;54636;51.684;5.142;2024-02-23T10:10:48;99026.63;;;7.66;100.00
67840;BME280;54636;51.684;5.142;2024-02-23T10:13:24;99024.78;;;7.79;100.00
67840;BME280;54636;51.684;5.142;2024-02-23T10:15:50;99024.41;;;7.64;100.00
67840;BME280;54636;51.684;5.142;2024-02-23T10:18:16;99017.81;;;7.59;100.00
67840;BME280;54636;51.684;5.142;2024-02-23T10:20:42;99011.72;;;7.53;100.00
67840;BME280;54636;51.684;5.142;2024-02-23T10:23:08;99010.56;;;7.43;100.00
67840;BME280;54636;51.684;5.142;2024-02-23T10:25:34;99019.28;;;7.60;100.00
67840;BME280;54636;51.684;5.142;2024-02-23T10:28:04;99022.19;;;7.68;100.00
67840;BME280;54636;51.684;5.142;2024-02-23T10:30:30;99020.13;;;7.80;100.00
67840;BME280;54636;51.684;5.142;2024-02-23T10:32:57;99035.06;;;7.81;100.00
67840;BME280;54636;51.684;5.142;2024-02-23T10:35:24;99012.63;;;7.91;100.00
67840;BME280;54636;51.684;5.142;2024-02-23T10:37:51;99027.47;;;8.09;100.00
67840;BME280;54636;51.684;5.142;2024-02-23T10:40:18;99029.03;;;8.23;100.00
67840;BME280;54636;51.684;5.142;2024-02-23T10:42:44;99029.69;;;8.35;100.00
67840;BME280;54636;51.684;5.142;2024-02-23T10:45:17;99037.81;;;8.35;100.00
67840;BME280;54636;51.684;5.142;2024-02-23T10:47:43;99043.72;;;8.34;100.00
67840;BME280;54636;51.684;5.142;2024-02-23T10:50:09;99037.31;;;8.37;100.00
67840;BME280;54636;51.684;5.142;2024-02-23T10:52:35;99041.28;;;8.30;100.00
67840;BME280;54636;51.684;5.142;2024-02-23T10:55:01;99059.25;;;8.27;100.00
67840;BME280;54636;51.684;5.142;2024-02-23T10:57:30;99043.59;;;8.20;100.00
67840;BME280;54636;51.684;5.142;2024-02-23T10:59:57;99053.25;;;8.40;100.00
67840;BME280;54636;51.684;5.142;2024-02-23T11:02:24;99046.00;;;8.48;100.00
67840;BME280;54636;51.684;5.142;2024-02-23T11:04:51;99043.03;;;8.52;100.00
67840;BME280;54636;51.684;5.142;2024-02-23T11:07:19;99057.75;;;8.56;100.00
67840;BME280;54636;51.684;5.142;2024-02-23T11:09:52;99055.81;;;8.51;100.00
67840;BME280;54636;51.684;5.142;2024-02-23T11:12:26;99051.75;;;8.45;100.00
67840;BME280;54636;51.684;5.142;2024-02-23T11:14:56;99034.03;;;8.44;100.00
67840;BME280;54636;51.684;5.142;2024-02-23T11:17:22;99035.19;;;8.48;100.00
67840;BME280;54636;51.684;5.142;2024-02-23T11:19:51;99066.34;;;8.31;100.00
67840;BME280;54636;51.684;5.142;2024-02-23T11:22:33;99050.09;;;8.36;100.00
67840;BME280;54636;51.684;5.142;2024-02-23T11:25:01;99054.56;;;8.28;100.00
67840;BME280;54636;51.684;5.142;2024-02-23T11:27:30;99059.19;;;8.39;100.00
67840;BME280;54636;51.684;5.142;2024-02-23T11:30:07;99065.69;;;8.24;100.00
67840;BME280;54636;51.684;5.142;2024-02-23T11:32:44;99062.19;;;8.30;100.00
67840;BME280;54636;51.684;5.142;2024-02-23T11:35:16;99063.19;;;8.26;100.00
67840;BME280;54636;51.684;5.142;2024-02-23T11:38:03;99071.09;;;8.24;100.00
67840;BME280;54636;51.684;5.142;2024-02-23T11:40:31;99066.91;;;8.23;100.00
67840;BME280;54636;51.684;5.142;2024-02-23T11:42:57;99062.00;;;8.22;100.00
67840;BME280;54636;51.684;5.142;2024-02-23T11:45:23;99070.31;;;8.30;100.00
67840;BME280;54636;51.684;5.142;2024-02-23T11:47:49;99066.13;;;8.29;100.00
67840;BME280;54636;51.684;5.142;2024-02-23T11:50:14;99071.81;;;8.25;100.00
67840;BME280;54636;51.684;5.142;2024-02-23T11:52:41;99076.31;;;8.17;100.00
67840;BME280;54636;51.684;5.142;2024-02-23T11:55:07;99076.03;;;8.20;100.00
67840;BME280;54636;51.684;5.142;2024-02-23T11:57:36;99077.50;;;8.21;100.00
67840;BME280;54636;51.684;5.142;2024-02-23T12:00:03;99081.22;;;8.18;100.00
67840;BME280;54636;51.684;5.142;2024-02-23T12:02:31;99081.22;;;8.18;100.00
67840;BME280;54636;51.684;5.142;2024-02-23T12:04:57;99082.00;;;8.13;100.00
67840;BME280;54636;51.684;5.142;2024-02-23T12:07:22;99078.75;;;8.20;100.00
67840;BME280;54636;51.684;5.142;2024-02-23T12:09:48;99076.03;;;8.20;100.00
67840;BME280;54636;51.684;5.142;2024-02-23T12:12:13;99079.94;;;8.25;100.00
67840;BME280;54636;51.684;5.142;2024-02-23T12:14:40;99093.19;;;8.29;100.00
67840;BME280;54636;51.684;5.142;2024-02-23T12:17:07;99088.78;;;8.25;100.00
67840;BME280;54636;51.684;5.142;2024-02-23T12:19:38;99086.06;;;8.25;100.00
67840;BME280;54636;51.684;5.142;2024-02-23T12:22:04;99093.41;;;8.31;100.00
67840;BME280;54636;51.684;5.142;2024-02-23T12:24:29;99097.56;;;8.32;100.00
67840;BME280;54636;51.684;5.142;2024-02-23T12:26:55;99100.03;;;8.35;100.00
67840;BME280;54636;51.684;5.142;2024-02-23T12:29:21;99094.81;;;8.43;100.00
67840;BME280;54636;51.684;5.142;2024-02-23T12:31:47;99104.75;;;8.53;100.00
67840;BME280;54636;51.684;5.142;2024-02-23T12:34:13;99107.91;;;8.57;100.00
67840;BME280;54636;51.684;5.142;2024-02-23T12:36:39;99119.66;;;8.66;100.00
67840;BME280;54636;51.684;5.142;2024-02-23T12:39:04;99117.50;;;8.58;100.00
67840;BME280;54636;51.684;5.142;2024-02-23T12:41:30;99114.00;;;8.64;100.00
67840;BME280;54636;51.684;5.142;2024-02-23T12:43:55;99122.53;;;8.73;100.00
67840;BME280;54636;51.684;5.142;2024-02-23T12:46:20;99121.22;;;8.80;100.00
67840;BME280;54636;51.684;5.142;2024-02-23T12:48:46;99120.38;;;8.90;100.00
67840;BME280;54636;51.684;5.142;2024-02-23T12:51:11;99111.63;;;8.79;100.00
67840;BME280;54636;51.684;5.142;2024-02-23T12:53:39;99120.53;;;8.74;100.00